createdAt,value
2023-05-12T00:00:43.978Z,49.17
2023-05-12T00:01:43.788Z,49.16
2023-05-12T00:02:43.976Z,49.14
2023-05-12T00:03:44.144Z,49.15
2023-05-12T00:04:42.918Z,49.11
2023-05-12T00:05:43.900Z,49.12
2023-05-12T00:06:43.434Z,49.15
2023-05-12T00:07:44.247Z,49.12
2023-05-12T00:08:43.136Z,49.08
2023-05-12T00:09:44.033Z,49.10
2023-05-12T00:10:44.062Z,49.13
2023-05-12T00:11:43.127Z,49.13
2023-05-12T00:12:45.224Z,49.11
2023-05-12T00:13:44.240Z,49.10
2023-05-12T00:14:44.220Z,49.15
2023-05-12T00:15:45.131Z,49.13
2023-05-12T00:16:43.271Z,49.16
2023-05-12T00:17:43.248Z,49.16
2023-05-12T00:18:43.313Z,49.18
2023-05-12T00:19:43.301Z,49.14
2023-05-12T00:20:44.325Z,49.11
2023-05-12T00:21:44.620Z,49.18
2023-05-12T00:22:43.973Z,49.14
2023-05-12T00:23:43.839Z,49.13
2023-05-12T00:24:45.025Z,49.10
2023-05-12T00:25:44.957Z,49.12
2023-05-12T00:26:44.961Z,49.11
2023-05-12T00:27:44.976Z,49.11
2023-05-12T00:28:45.044Z,49.08
2023-05-12T00:29:44.670Z,49.08
2023-05-12T00:30:44.681Z,49.09
2023-05-12T00:31:44.731Z,49.08
2023-05-12T00:32:44.814Z,49.08
2023-05-12T00:33:44.022Z,49.10
2023-05-12T00:34:45.340Z,49.08
2023-05-12T00:35:45.386Z,49.09
2023-05-12T00:36:45.195Z,49.02
2023-05-12T00:37:44.179Z,48.99
2023-05-12T00:38:45.449Z,49.00
2023-05-12T00:39:45.364Z,49.04
2023-05-12T00:40:44.399Z,48.94
2023-05-12T00:41:44.695Z,48.95
2023-05-12T00:42:45.548Z,48.93
2023-05-12T00:43:45.597Z,48.93
2023-05-12T00:44:45.766Z,48.96
2023-05-12T00:45:45.756Z,48.93
2023-05-12T00:46:44.388Z,48.97
2023-05-12T00:47:49.017Z,48.98
2023-05-12T00:48:45.352Z,48.95
2023-05-12T00:49:46.200Z,48.99
2023-05-12T00:50:46.275Z,48.98
2023-05-12T00:51:45.604Z,48.98
2023-05-12T00:52:46.024Z,48.99
2023-05-12T00:53:50.000Z,49.00
2023-05-12T00:54:44.711Z,49.02
2023-05-12T00:55:45.310Z,48.99
2023-05-12T00:56:45.848Z,48.99
2023-05-12T00:57:45.816Z,48.99
2023-05-12T00:58:45.544Z,49.01
2023-05-12T00:59:45.505Z,49.02
2023-05-12T01:00:45.623Z,49.00
2023-05-12T01:01:44.349Z,49.00
2023-05-12T01:02:45.346Z,49.02
2023-05-12T01:03:44.279Z,49.02
2023-05-12T01:04:45.273Z,49.00
2023-05-12T01:05:45.648Z,49.00
2023-05-12T01:06:44.372Z,49.02
2023-05-12T01:07:45.895Z,49.01
2023-05-12T01:08:45.312Z,48.95
2023-05-12T01:09:45.342Z,48.95
2023-05-12T01:10:45.277Z,48.90
2023-05-12T01:11:46.064Z,48.91
2023-05-12T01:12:45.299Z,48.94
2023-05-12T01:13:45.362Z,48.90
2023-05-12T01:14:45.407Z,48.89
2023-05-12T01:15:44.443Z,48.90
2023-05-12T01:16:44.489Z,48.91
2023-05-12T01:17:44.639Z,48.88
2023-05-12T01:18:45.571Z,48.91
2023-05-12T01:19:44.563Z,48.88
2023-05-12T01:20:45.579Z,48.90
2023-05-12T01:21:44.593Z,48.90
2023-05-12T01:22:45.653Z,48.93
2023-05-12T01:23:44.654Z,48.93
2023-05-12T01:24:45.683Z,48.91
2023-05-12T01:25:45.707Z,48.90
2023-05-12T01:26:44.726Z,48.91
2023-05-12T01:27:44.789Z,48.93
2023-05-12T01:28:44.816Z,48.90
2023-05-12T01:29:45.840Z,48.87
2023-05-12T01:30:45.968Z,48.88
2023-05-12T01:31:45.996Z,48.90
2023-05-12T01:32:46.156Z,48.88
2023-05-12T01:33:45.059Z,48.90
2023-05-12T01:34:45.080Z,48.92
2023-05-12T01:35:46.108Z,48.90
2023-05-12T01:36:45.133Z,48.91
2023-05-12T01:37:46.165Z,48.89
2023-05-12T01:38:45.193Z,48.88
2023-05-12T01:39:46.206Z,48.87
2023-05-12T01:40:46.260Z,48.87
2023-05-12T01:41:46.229Z,48.87
2023-05-12T01:42:46.253Z,48.86
2023-05-12T01:43:46.274Z,48.84
2023-05-12T01:44:46.377Z,48.80
2023-05-12T01:45:46.355Z,48.80
2023-05-12T01:46:45.374Z,48.78
2023-05-12T01:47:45.471Z,48.78
2023-05-12T01:48:46.902Z,48.79
2023-05-12T01:49:46.494Z,48.82
2023-05-12T01:50:45.487Z,48.78
2023-05-12T01:51:45.541Z,48.76
2023-05-12T01:52:45.542Z,48.79
2023-05-12T01:53:45.598Z,48.80
2023-05-12T01:54:45.613Z,48.81
2023-05-12T01:55:46.658Z,48.78
2023-05-12T01:56:45.722Z,48.80
2023-05-12T01:57:46.710Z,48.78
2023-05-12T01:58:46.766Z,48.82
2023-05-12T01:59:45.761Z,48.79
2023-05-12T02:00:47.100Z,48.80
2023-05-12T02:01:46.350Z,48.83
2023-05-12T02:02:48.986Z,48.78
2023-05-12T02:03:46.644Z,48.80
2023-05-12T02:04:45.927Z,48.74
2023-05-12T02:05:46.093Z,48.69
2023-05-12T02:06:47.058Z,48.71
2023-05-12T02:07:46.773Z,48.71
2023-05-12T02:08:46.761Z,48.72
2023-05-12T02:09:46.784Z,48.72
2023-05-12T02:10:45.790Z,48.71
2023-05-12T02:11:46.746Z,48.71
2023-05-12T02:12:46.751Z,48.64
2023-05-12T02:13:46.747Z,48.61
2023-05-12T02:14:46.727Z,48.64
2023-05-12T02:15:47.547Z,48.60
2023-05-12T02:16:47.140Z,48.60
2023-05-12T02:17:46.930Z,48.56
2023-05-12T02:18:46.197Z,48.57
2023-05-12T02:19:46.698Z,48.55
2023-05-12T02:20:45.688Z,48.54
2023-05-12T02:21:45.663Z,48.53
2023-05-12T02:22:46.674Z,48.58
2023-05-12T02:23:47.425Z,48.57
2023-05-12T02:24:46.685Z,48.58
2023-05-12T02:25:46.702Z,48.60
2023-05-12T02:26:46.721Z,48.57
2023-05-12T02:27:45.784Z,48.61
2023-05-12T02:28:45.794Z,48.58
2023-05-12T02:29:46.838Z,48.61
2023-05-12T02:30:46.837Z,48.59
2023-05-12T02:31:46.863Z,48.59
2023-05-12T02:32:46.933Z,48.65
2023-05-12T02:33:45.870Z,48.60
2023-05-12T02:34:45.891Z,48.61
2023-05-12T02:35:47.182Z,48.59
2023-05-12T02:36:46.250Z,48.64
2023-05-12T02:37:47.255Z,48.58
2023-05-12T02:38:47.215Z,48.55
2023-05-12T02:39:46.337Z,48.59
2023-05-12T02:40:46.471Z,48.55
2023-05-12T02:41:47.148Z,48.61
2023-05-12T02:42:46.321Z,48.58
2023-05-12T02:43:47.416Z,48.62
2023-05-12T02:44:47.520Z,48.62
2023-05-12T02:45:47.499Z,48.61
2023-05-12T02:46:46.058Z,48.60
2023-05-12T02:47:46.156Z,48.58
2023-05-12T02:48:46.104Z,48.58
2023-05-12T02:49:46.100Z,48.61
2023-05-12T02:50:47.081Z,48.56
2023-05-12T02:51:46.090Z,48.59
2023-05-12T02:52:46.109Z,48.58
2023-05-12T02:53:47.111Z,48.58
2023-05-12T02:54:47.119Z,48.59
2023-05-12T02:55:47.397Z,48.61
2023-05-12T02:56:46.532Z,48.54
2023-05-12T02:57:47.664Z,48.57
2023-05-12T02:58:46.398Z,48.58
2023-05-12T02:59:46.680Z,48.57
2023-05-12T03:00:47.548Z,48.57
2023-05-12T03:01:46.522Z,48.53
2023-05-12T03:02:47.508Z,48.53
2023-05-12T03:03:46.355Z,48.48
2023-05-12T03:04:47.417Z,48.48
2023-05-12T03:05:46.704Z,48.50
2023-05-12T03:06:47.772Z,48.45
2023-05-12T03:07:46.354Z,48.44
2023-05-12T03:08:47.514Z,48.43
2023-05-12T03:09:47.394Z,48.40
2023-05-12T03:10:46.125Z,48.39
2023-05-12T03:11:47.547Z,48.38
2023-05-12T03:12:47.354Z,48.34
2023-05-12T03:13:47.280Z,48.36
2023-05-12T03:14:46.152Z,48.34
2023-05-12T03:15:47.115Z,48.30
2023-05-12T03:16:46.168Z,48.32
2023-05-12T03:17:46.131Z,48.33
2023-05-12T03:18:46.069Z,48.31
2023-05-12T03:19:46.053Z,48.32
2023-05-12T03:20:47.084Z,48.30
2023-05-12T03:21:46.053Z,48.28
2023-05-12T03:22:47.054Z,48.27
2023-05-12T03:23:47.044Z,48.26
2023-05-12T03:24:46.047Z,48.25
2023-05-12T03:25:46.017Z,48.27
2023-05-12T03:26:47.021Z,48.27
2023-05-12T03:27:47.008Z,48.26
2023-05-12T03:28:47.053Z,48.25
2023-05-12T03:29:46.006Z,48.22
2023-05-12T03:30:45.993Z,48.21
2023-05-12T03:31:46.210Z,48.23
2023-05-12T03:32:46.007Z,48.23
2023-05-12T03:33:45.947Z,48.26
2023-05-12T03:34:45.994Z,48.30
2023-05-12T03:35:45.984Z,48.26
2023-05-12T03:36:46.955Z,48.26
2023-05-12T03:37:45.993Z,48.32
2023-05-12T03:38:45.990Z,48.30
2023-05-12T03:39:46.027Z,48.32
2023-05-12T03:40:47.042Z,48.30
2023-05-12T03:41:47.047Z,48.28
2023-05-12T03:42:46.025Z,48.29
2023-05-12T03:43:46.042Z,48.31
2023-05-12T03:44:47.520Z,48.31
2023-05-12T03:45:47.592Z,48.29
2023-05-12T03:46:47.379Z,48.29
2023-05-12T03:47:47.678Z,48.31
2023-05-12T03:48:46.561Z,48.30
2023-05-12T03:49:47.110Z,48.28
2023-05-12T03:50:46.362Z,48.30
2023-05-12T03:51:46.143Z,48.31
2023-05-12T03:52:47.119Z,48.32
2023-05-12T03:53:47.126Z,48.34
2023-05-12T03:54:47.146Z,48.34
2023-05-12T03:55:47.145Z,48.34
2023-05-12T03:56:47.146Z,48.35
2023-05-12T03:57:47.188Z,48.35
2023-05-12T03:58:47.159Z,48.33
2023-05-12T03:59:46.208Z,48.34
2023-05-12T04:00:46.497Z,48.32
2023-05-12T04:01:47.481Z,48.31
2023-05-12T04:02:47.671Z,48.28
2023-05-12T04:03:46.472Z,48.25
2023-05-12T04:04:47.365Z,48.26
2023-05-12T04:05:47.460Z,48.25
2023-05-12T04:06:46.622Z,48.26
2023-05-12T04:07:46.281Z,48.28
2023-05-12T04:08:46.289Z,48.24
2023-05-12T04:09:47.648Z,48.26
2023-05-12T04:10:47.731Z,48.23
2023-05-12T04:11:46.629Z,48.19
2023-05-12T04:12:46.623Z,48.18
2023-05-12T04:13:47.453Z,48.19
2023-05-12T04:14:47.520Z,48.23
2023-05-12T04:15:47.881Z,48.19
2023-05-12T04:16:47.613Z,48.18
2023-05-12T04:17:47.451Z,48.18
2023-05-12T04:18:47.382Z,48.19
2023-05-12T04:19:47.372Z,48.17
2023-05-12T04:20:46.377Z,48.20
2023-05-12T04:21:47.418Z,48.15
2023-05-12T04:22:46.387Z,48.18
2023-05-12T04:23:47.395Z,48.17
2023-05-12T04:24:47.422Z,48.17
2023-05-12T04:25:47.419Z,48.19
2023-05-12T04:26:46.423Z,48.17
2023-05-12T04:27:47.435Z,48.23
2023-05-12T04:28:47.445Z,48.21
2023-05-12T04:29:46.501Z,48.19
2023-05-12T04:30:47.470Z,48.21
2023-05-12T04:31:47.507Z,48.21
2023-05-12T04:32:47.619Z,48.19
2023-05-12T04:33:48.369Z,48.19
2023-05-12T04:34:46.538Z,48.16
2023-05-12T04:35:46.535Z,48.14
2023-05-12T04:36:47.575Z,48.09
2023-05-12T04:37:47.529Z,48.10
2023-05-12T04:38:47.540Z,48.11
2023-05-12T04:39:47.575Z,48.12
2023-05-12T04:40:47.617Z,48.13
2023-05-12T04:41:46.639Z,48.12
2023-05-12T04:42:47.611Z,48.10
2023-05-12T04:44:46.587Z,48.11
2023-05-12T04:45:47.602Z,48.12
2023-05-12T04:46:47.830Z,48.06
2023-05-12T04:47:46.887Z,48.07
2023-05-12T04:48:47.791Z,48.07
2023-05-12T04:49:47.578Z,48.08
2023-05-12T04:50:46.557Z,48.11
2023-05-12T04:51:47.768Z,48.09
2023-05-12T04:52:46.748Z,48.05
2023-05-12T04:53:46.976Z,48.04
2023-05-12T04:54:46.698Z,48.02
2023-05-12T04:55:47.930Z,48.02
2023-05-12T04:56:47.821Z,48.10
2023-05-12T04:57:47.797Z,48.13
2023-05-12T04:58:46.650Z,48.18
2023-05-12T04:59:46.756Z,48.19
2023-05-12T05:00:46.601Z,48.17
2023-05-12T05:01:46.839Z,48.15
2023-05-12T05:02:47.829Z,48.25
2023-05-12T05:03:47.559Z,48.22
2023-05-12T05:04:47.488Z,48.25
2023-05-12T05:05:46.473Z,48.23
2023-05-12T05:06:47.481Z,48.24
2023-05-12T05:07:47.534Z,48.31
2023-05-12T05:08:49.283Z,48.34
2023-05-12T05:09:53.139Z,48.33
2023-05-12T05:10:47.431Z,48.33
2023-05-12T05:11:46.410Z,48.31
2023-05-12T05:12:46.411Z,48.24
2023-05-12T05:13:53.240Z,48.25
2023-05-12T05:14:53.379Z,48.29
2023-05-12T05:15:50.475Z,48.30
2023-05-12T05:16:52.074Z,48.30
2023-05-12T05:17:49.952Z,48.33
2023-05-12T05:18:49.226Z,48.34
2023-05-12T05:19:57.396Z,48.34
2023-05-12T05:20:57.203Z,48.40
2023-05-12T05:21:47.398Z,48.48
2023-05-12T05:22:48.218Z,48.37
2023-05-12T05:23:49.951Z,48.34
2023-05-12T05:24:47.445Z,48.31
2023-05-12T05:25:46.419Z,48.28
2023-05-12T05:26:47.397Z,48.28
2023-05-12T05:27:50.612Z,48.34
2023-05-12T05:28:46.334Z,48.30
2023-05-12T05:29:47.350Z,48.31
2023-05-12T05:30:47.642Z,48.32
2023-05-12T05:31:47.387Z,48.29
2023-05-12T05:32:47.354Z,48.22
2023-05-12T05:33:47.287Z,48.29
2023-05-12T05:34:47.277Z,48.04
2023-05-12T05:35:46.249Z,48.22
2023-05-12T05:36:47.257Z,48.26
2023-05-12T05:37:48.226Z,48.16
2023-05-12T05:38:47.327Z,48.16
2023-05-12T05:39:47.220Z,48.25
2023-05-12T05:40:53.057Z,48.34
2023-05-12T05:41:47.284Z,48.32
2023-05-12T05:42:47.710Z,48.32
2023-05-12T05:43:46.590Z,48.33
2023-05-12T05:44:47.176Z,48.35
2023-05-12T05:45:47.177Z,48.42
2023-05-12T05:46:46.167Z,48.50
2023-05-12T05:47:47.796Z,48.54
2023-05-12T05:48:47.188Z,48.57
2023-05-12T05:49:47.709Z,48.55
2023-05-12T05:50:46.469Z,48.78
2023-05-12T05:51:46.356Z,48.72
2023-05-12T05:52:47.789Z,48.84
2023-05-12T05:53:46.470Z,49.32
2023-05-12T05:54:46.522Z,49.39
2023-05-12T05:55:47.074Z,49.51
2023-05-12T05:56:47.692Z,49.63
2023-05-12T05:57:47.866Z,49.74
2023-05-12T05:58:47.003Z,50.37
2023-05-12T05:59:47.903Z,50.67
2023-05-12T06:00:48.248Z,50.82
2023-05-12T06:01:47.285Z,50.72
2023-05-12T06:02:48.543Z,50.96
2023-05-12T06:03:48.242Z,51.15
2023-05-12T06:04:47.089Z,51.39
2023-05-12T06:05:48.022Z,51.30
2023-05-12T06:06:47.183Z,51.29
2023-05-12T06:07:47.591Z,51.26
2023-05-12T06:08:47.197Z,51.32
2023-05-12T06:09:47.236Z,51.27
2023-05-12T06:10:47.143Z,51.40
2023-05-12T06:11:48.205Z,51.58
2023-05-12T06:12:48.537Z,51.69
2023-05-12T06:13:47.483Z,51.70
2023-05-12T06:14:47.259Z,51.89
2023-05-12T06:15:48.272Z,51.82
2023-05-12T06:16:48.300Z,52.01
2023-05-12T06:17:48.456Z,52.33
2023-05-12T06:18:48.347Z,52.18
2023-05-12T06:19:48.398Z,52.14
2023-05-12T06:20:47.415Z,52.17
2023-05-12T06:21:48.443Z,52.42
2023-05-12T06:22:48.493Z,52.55
2023-05-12T06:23:47.588Z,52.46
2023-05-12T06:24:47.625Z,52.64
2023-05-12T06:25:48.655Z,52.77
2023-05-12T06:26:47.693Z,52.70
2023-05-12T06:27:49.068Z,52.74
2023-05-12T06:28:48.797Z,52.68
2023-05-12T06:29:48.828Z,52.65
2023-05-12T06:30:48.862Z,52.43
2023-05-12T06:31:47.976Z,52.46
2023-05-12T06:32:48.106Z,52.66
2023-05-12T06:33:48.983Z,52.92
2023-05-12T06:34:49.026Z,53.00
2023-05-12T06:35:49.284Z,53.09
2023-05-12T06:36:49.187Z,53.27
2023-05-12T06:37:48.136Z,53.37
2023-05-12T06:38:49.187Z,53.33
2023-05-12T06:39:48.234Z,53.25
2023-05-12T06:40:49.298Z,53.23
2023-05-12T06:41:48.399Z,53.32
2023-05-12T06:42:49.344Z,53.24
2023-05-12T06:43:48.362Z,53.52
2023-05-12T06:44:49.464Z,53.62
2023-05-12T06:45:49.496Z,53.74
2023-05-12T06:46:49.544Z,53.25
2023-05-12T06:47:49.544Z,53.53
2023-05-12T06:48:48.567Z,53.63
2023-05-12T06:49:49.597Z,53.78
2023-05-12T06:50:48.615Z,53.79
2023-05-12T06:51:48.805Z,52.88
2023-05-12T06:52:48.802Z,51.94
2023-05-12T06:53:49.720Z,51.78
2023-05-12T06:54:49.769Z,48.23
2023-05-12T06:55:49.765Z,47.83
2023-05-12T06:56:49.777Z,48.78
2023-05-12T06:57:49.798Z,49.82
2023-05-12T06:58:48.853Z,50.28
2023-05-12T06:59:48.996Z,50.08
2023-05-12T07:00:50.022Z,49.37
2023-05-12T07:01:49.959Z,49.16
2023-05-12T07:02:48.976Z,48.16
2023-05-12T07:03:49.042Z,45.51
2023-05-12T07:04:49.081Z,44.51
2023-05-12T07:05:50.211Z,43.61
2023-05-12T07:06:49.217Z,43.47
2023-05-12T07:07:50.232Z,43.19
2023-05-12T07:08:50.199Z,43.16
2023-05-12T07:09:50.374Z,42.74
2023-05-12T07:10:50.380Z,42.69
2023-05-12T07:11:50.370Z,42.67
2023-05-12T07:12:50.312Z,42.89
2023-05-12T07:13:50.380Z,42.81
2023-05-12T07:14:50.399Z,42.97
2023-05-12T07:15:49.452Z,43.46
2023-05-12T07:16:50.582Z,43.72
2023-05-12T07:17:49.528Z,43.33
2023-05-12T07:18:49.549Z,43.33
2023-05-12T07:19:49.607Z,43.39
2023-05-12T07:20:49.632Z,43.58
2023-05-12T07:21:50.670Z,43.59
2023-05-12T07:22:49.674Z,43.85
2023-05-12T07:23:50.670Z,43.01
2023-05-12T07:24:49.739Z,42.78
2023-05-12T07:25:49.764Z,42.41
2023-05-12T07:26:49.789Z,42.34
2023-05-12T07:27:50.863Z,42.49
2023-05-12T07:28:50.994Z,42.45
2023-05-12T07:29:49.823Z,42.92
2023-05-12T07:30:49.880Z,42.64
2023-05-12T07:31:50.933Z,42.75
2023-05-12T07:32:49.981Z,42.45
2023-05-12T07:33:50.967Z,42.37
2023-05-12T07:34:51.013Z,42.21
2023-05-12T07:35:50.067Z,42.02
2023-05-12T07:36:51.196Z,41.82
2023-05-12T07:37:51.073Z,41.96
2023-05-12T07:38:50.076Z,42.60
2023-05-12T07:39:51.110Z,43.03
2023-05-12T07:40:51.149Z,42.96
2023-05-12T07:41:51.213Z,43.00
2023-05-12T07:42:51.246Z,43.39
2023-05-12T07:43:51.315Z,43.28
2023-05-12T07:44:51.249Z,43.21
2023-05-12T07:45:51.428Z,43.45
2023-05-12T07:46:51.449Z,43.89
2023-05-12T07:47:51.479Z,44.11
2023-05-12T07:48:51.527Z,44.36
2023-05-12T07:49:50.556Z,44.16
2023-05-12T07:50:50.566Z,44.12
2023-05-12T07:51:51.772Z,44.23
2023-05-12T07:52:51.642Z,44.29
2023-05-12T07:53:50.667Z,44.39
2023-05-12T07:54:50.710Z,44.34
2023-05-12T07:55:51.787Z,44.37
2023-05-12T07:56:51.848Z,44.53
2023-05-12T07:57:50.932Z,44.55
2023-05-12T07:58:51.000Z,44.71
2023-05-12T07:59:52.011Z,44.77
2023-05-12T08:00:52.039Z,44.83
2023-05-12T08:01:52.119Z,44.89
2023-05-12T08:02:51.373Z,44.91
2023-05-12T08:03:51.392Z,45.04
2023-05-12T08:04:51.332Z,44.99
2023-05-12T08:05:51.261Z,45.08
2023-05-12T08:06:52.362Z,45.09
2023-05-12T08:07:52.451Z,45.14
2023-05-12T08:08:52.420Z,45.07
2023-05-12T08:09:51.483Z,45.11
2023-05-12T08:10:52.475Z,45.10
2023-05-12T08:11:52.504Z,45.16
2023-05-12T08:12:51.529Z,45.23
2023-05-12T08:13:52.562Z,45.27
2023-05-12T08:14:52.561Z,45.29
2023-05-12T08:15:52.629Z,45.32
2023-05-12T08:16:51.685Z,45.34
2023-05-12T08:17:51.674Z,45.38
2023-05-12T08:18:52.694Z,45.42
2023-05-12T08:19:52.670Z,45.43
2023-05-12T08:20:52.759Z,45.52
2023-05-12T08:21:52.756Z,45.48
2023-05-12T08:22:52.786Z,45.49
2023-05-12T08:23:52.809Z,45.48
2023-05-12T08:24:52.830Z,45.45
2023-05-12T08:25:51.881Z,45.54
2023-05-12T08:26:51.907Z,45.58
2023-05-12T08:27:52.911Z,45.62
2023-05-12T08:28:51.947Z,45.57
2023-05-12T08:29:52.985Z,45.62
2023-05-12T08:30:52.089Z,45.65
2023-05-12T08:31:52.075Z,45.64
2023-05-12T08:32:52.155Z,45.64
2023-05-12T08:34:09.034Z,45.62
2023-05-12T08:34:53.116Z,45.71
2023-05-12T08:35:52.089Z,45.69
2023-05-12T08:36:52.146Z,45.68
2023-05-12T08:37:53.077Z,45.68
2023-05-12T08:38:53.046Z,45.61
2023-05-12T08:39:53.066Z,45.69
2023-05-12T08:40:53.053Z,45.72
2023-05-12T08:41:52.297Z,45.86
2023-05-12T08:42:53.060Z,46.23
2023-05-12T08:43:52.040Z,47.33
2023-05-12T08:44:53.049Z,46.98
2023-05-12T08:45:52.026Z,46.82
2023-05-12T08:46:53.027Z,46.14
2023-05-12T08:47:52.030Z,45.84
2023-05-12T08:48:53.072Z,46.15
2023-05-12T08:49:52.977Z,45.82
2023-05-12T08:50:52.006Z,46.92
2023-05-12T08:51:57.679Z,45.30
2023-05-12T08:52:53.120Z,45.80
2023-05-12T08:53:53.022Z,45.80
2023-05-12T08:54:56.085Z,46.42
2023-05-12T08:57:09.722Z,46.31
2023-05-12T08:57:52.009Z,45.83
2023-05-12T08:58:53.014Z,46.06
2023-05-12T08:59:52.999Z,45.51
2023-05-12T09:00:53.005Z,45.20
2023-05-12T09:01:51.982Z,45.30
2023-05-12T09:02:54.701Z,45.00
2023-05-12T09:03:53.048Z,44.84
2023-05-12T09:04:53.137Z,44.90
2023-05-12T09:05:51.943Z,44.62
2023-05-12T09:06:55.589Z,44.54
2023-05-12T09:07:51.922Z,44.35
2023-05-12T09:08:52.944Z,44.08
2023-05-12T09:09:52.897Z,43.83
2023-05-12T09:10:52.907Z,43.91
2023-05-12T09:11:52.901Z,43.59
2023-05-12T09:12:52.924Z,43.60
2023-05-12T09:13:52.899Z,43.38
2023-05-12T09:14:52.874Z,43.35
2023-05-12T09:15:52.893Z,43.38
2023-05-12T09:16:52.077Z,43.23
2023-05-12T09:17:52.931Z,43.13
2023-05-12T09:18:51.972Z,42.90
2023-05-12T09:19:52.846Z,42.67
2023-05-12T09:20:51.860Z,42.61
2023-05-12T09:21:51.832Z,42.58
2023-05-12T09:22:51.816Z,42.63
2023-05-12T09:23:52.901Z,42.66
2023-05-12T09:24:52.940Z,42.34
2023-05-12T09:25:51.801Z,42.22
2023-05-12T09:26:52.843Z,42.35
2023-05-12T09:27:52.823Z,42.33
2023-05-12T09:28:51.792Z,42.42
2023-05-12T09:29:59.284Z,42.33
2023-05-12T09:30:52.772Z,42.52
2023-05-12T09:31:52.783Z,42.64
2023-05-12T09:32:52.768Z,42.75
2023-05-12T09:33:51.775Z,42.55
2023-05-12T09:34:51.742Z,42.70
2023-05-12T09:35:51.730Z,42.78
2023-05-12T09:36:51.732Z,42.83
2023-05-12T09:37:51.745Z,42.79
2023-05-12T09:38:52.751Z,42.78
2023-05-12T09:39:51.704Z,42.80
2023-05-12T09:40:51.754Z,42.86
2023-05-12T09:41:51.700Z,42.84
2023-05-12T09:42:52.673Z,42.82
2023-05-12T09:43:51.737Z,42.87
2023-05-12T09:44:52.672Z,42.82
2023-05-12T09:45:51.755Z,42.78
2023-05-12T09:46:52.682Z,42.86
2023-05-12T09:47:52.666Z,42.64
2023-05-12T09:48:52.688Z,42.91
2023-05-12T09:49:52.638Z,43.93
2023-05-12T09:50:52.677Z,44.42
2023-05-12T09:51:51.794Z,44.60
2023-05-12T09:52:52.796Z,44.92
2023-05-12T09:53:51.650Z,44.97
2023-05-12T09:54:52.614Z,45.24
2023-05-12T09:55:52.650Z,45.16
2023-05-12T09:56:52.687Z,44.96
2023-05-12T09:57:52.614Z,44.97
2023-05-12T09:58:52.634Z,45.23
2023-05-12T09:59:52.661Z,45.24
2023-05-12T10:01:06.647Z,45.20
2023-05-12T10:01:52.745Z,45.14
2023-05-12T10:02:51.580Z,45.28
2023-05-12T10:03:51.553Z,45.18
2023-05-12T10:04:51.699Z,45.00
2023-05-12T10:05:52.549Z,45.23
2023-05-12T10:06:51.530Z,45.32
2023-05-12T10:07:52.687Z,45.54
2023-05-12T10:08:52.722Z,45.29
2023-05-12T10:09:52.531Z,45.67
2023-05-12T10:10:51.503Z,45.36
2023-05-12T10:11:53.451Z,45.39
2023-05-12T10:12:51.585Z,45.54
2023-05-12T10:13:52.574Z,45.70
2023-05-12T10:14:51.679Z,45.82
2023-05-12T10:15:52.638Z,45.60
2023-05-12T10:16:52.522Z,45.77
2023-05-12T10:17:54.058Z,45.82
2023-05-12T10:18:51.512Z,45.88
2023-05-12T10:19:51.460Z,46.03
2023-05-12T10:20:51.454Z,46.00
2023-05-12T10:21:51.475Z,46.27
2023-05-12T10:22:51.472Z,46.29
2023-05-12T10:23:51.507Z,46.35
2023-05-12T10:24:52.492Z,46.55
2023-05-12T10:25:51.504Z,46.51
2023-05-12T10:26:51.414Z,46.58
2023-05-12T10:27:52.466Z,46.70
2023-05-12T10:28:51.632Z,46.76
2023-05-12T10:29:53.565Z,46.86
2023-05-12T10:30:52.765Z,46.82
2023-05-12T10:31:51.565Z,47.15
2023-05-12T10:32:52.485Z,47.14
2023-05-12T10:33:52.512Z,47.29
2023-05-12T10:34:52.581Z,47.33
2023-05-12T10:35:52.451Z,47.37
2023-05-12T10:36:52.456Z,47.76
2023-05-12T10:37:51.472Z,47.32
2023-05-12T10:38:51.717Z,47.67
2023-05-12T10:39:52.968Z,47.62
2023-05-12T10:40:51.563Z,47.74
2023-05-12T10:41:52.810Z,47.72
2023-05-12T10:42:52.849Z,47.68
2023-05-12T10:43:51.649Z,47.82
2023-05-12T10:44:51.754Z,47.76
2023-05-12T10:45:52.727Z,47.81
2023-05-12T10:46:52.787Z,48.04
2023-05-12T10:47:53.030Z,48.21
2023-05-12T10:48:52.855Z,48.17
2023-05-12T10:49:51.868Z,48.36
2023-05-12T10:50:51.865Z,48.25
2023-05-12T10:51:52.891Z,48.13
2023-05-12T10:52:52.999Z,48.44
2023-05-12T10:53:54.627Z,48.65
2023-05-12T10:54:51.899Z,48.47
2023-05-12T10:55:53.340Z,48.57
2023-05-12T10:56:53.106Z,48.62
2023-05-12T10:57:53.252Z,48.74
2023-05-12T10:58:53.036Z,48.83
2023-05-12T10:59:52.734Z,48.69
2023-05-12T11:00:52.411Z,48.71
2023-05-12T11:01:52.499Z,48.76
2023-05-12T11:02:52.960Z,49.15
2023-05-12T11:03:52.781Z,48.94
2023-05-12T11:04:53.121Z,48.79
2023-05-12T11:05:52.079Z,48.91
2023-05-12T11:06:53.094Z,49.20
2023-05-12T11:07:52.991Z,49.13
2023-05-12T11:08:53.260Z,49.16
2023-05-12T11:09:57.701Z,49.17
2023-05-12T11:10:53.704Z,49.22
2023-05-12T11:11:52.301Z,49.19
2023-05-12T11:12:51.801Z,49.04
2023-05-12T11:13:51.766Z,48.91
2023-05-12T11:14:51.767Z,48.93
2023-05-12T11:15:52.840Z,49.21
2023-05-12T11:16:53.051Z,49.18
2023-05-12T11:17:52.835Z,49.15
2023-05-12T11:18:51.810Z,49.10
2023-05-12T11:19:51.736Z,49.17
2023-05-12T11:20:51.746Z,49.08
2023-05-12T11:21:52.777Z,49.13
2023-05-12T11:22:52.794Z,49.07
2023-05-12T11:23:52.882Z,49.03
2023-05-12T11:24:51.904Z,48.81
2023-05-12T11:25:52.021Z,48.70
2023-05-12T11:26:53.010Z,48.72
2023-05-12T11:27:53.070Z,48.83
2023-05-12T11:28:52.104Z,48.86
2023-05-12T11:29:53.214Z,48.65
2023-05-12T11:30:54.705Z,48.76
2023-05-12T11:31:52.282Z,48.84
2023-05-12T11:32:53.409Z,48.78
2023-05-12T11:34:04.645Z,48.75
2023-05-12T11:34:53.280Z,48.79
2023-05-12T11:35:52.207Z,48.83
2023-05-12T11:36:53.186Z,48.70
2023-05-12T11:37:52.329Z,48.37
2023-05-12T11:38:52.268Z,48.63
2023-05-12T11:39:53.262Z,48.73
2023-05-12T11:40:53.188Z,48.73
2023-05-12T11:42:02.050Z,48.82
2023-05-12T11:42:53.270Z,48.93
2023-05-12T11:43:52.170Z,48.59
2023-05-12T11:44:53.187Z,48.56
2023-05-12T11:45:52.230Z,48.59
2023-05-12T11:46:52.128Z,48.61
2023-05-12T11:47:53.178Z,48.58
2023-05-12T11:48:53.171Z,48.53
2023-05-12T11:49:53.134Z,48.59
2023-05-12T11:50:52.124Z,48.26
2023-05-12T11:51:52.102Z,48.44
2023-05-12T11:52:53.124Z,48.30
2023-05-12T11:53:53.118Z,48.09
2023-05-12T11:54:53.100Z,48.18
2023-05-12T11:55:53.112Z,48.06
2023-05-12T11:56:52.071Z,48.11
2023-05-12T11:57:53.090Z,48.47
2023-05-12T11:58:53.129Z,48.17
2023-05-12T11:59:53.053Z,48.13
2023-05-12T12:00:52.142Z,48.09
2023-05-12T12:01:53.050Z,48.01
2023-05-12T12:02:53.110Z,48.09
2023-05-12T12:03:52.163Z,48.29
2023-05-12T12:04:52.075Z,47.93
2023-05-12T12:05:52.044Z,48.17
2023-05-12T12:06:53.076Z,48.25
2023-05-12T12:07:52.016Z,48.35
2023-05-12T12:08:52.478Z,48.55
2023-05-12T12:09:53.003Z,48.56
2023-05-12T12:10:52.995Z,48.56
2023-05-12T12:11:53.008Z,48.59
2023-05-12T12:12:52.003Z,48.63
2023-05-12T12:13:53.067Z,48.75
2023-05-12T12:14:53.136Z,48.68
2023-05-12T12:15:52.217Z,48.73
2023-05-12T12:16:53.244Z,48.63
2023-05-12T12:17:53.327Z,48.67
2023-05-12T12:18:52.462Z,48.65
2023-05-12T12:19:53.364Z,48.61
2023-05-12T12:20:53.458Z,48.66
2023-05-12T12:21:52.457Z,48.72
2023-05-12T12:22:52.494Z,48.65
2023-05-12T12:23:53.555Z,48.74
2023-05-12T12:24:53.616Z,48.86
2023-05-12T12:25:53.659Z,48.77
2023-05-12T12:26:53.716Z,48.87
2023-05-12T12:27:52.774Z,48.74
2023-05-12T12:28:53.854Z,48.74
2023-05-12T12:29:52.887Z,48.71
2023-05-12T12:30:52.952Z,48.60
2023-05-12T12:31:53.024Z,48.55
2023-05-12T12:32:53.165Z,48.62
2023-05-12T12:33:54.159Z,48.50
2023-05-12T12:34:54.117Z,48.32
2023-05-12T12:35:54.214Z,48.46
2023-05-12T12:36:54.248Z,48.32
2023-05-12T12:37:54.296Z,48.51
2023-05-12T12:38:54.369Z,48.32
2023-05-12T12:39:54.420Z,48.26
2023-05-12T12:40:53.404Z,48.26
2023-05-12T12:41:53.416Z,48.40
2023-05-12T12:42:54.477Z,48.48
2023-05-12T12:43:53.531Z,48.52
2023-05-12T12:44:54.545Z,48.39
2023-05-12T12:45:53.563Z,48.46
2023-05-12T12:46:53.613Z,48.43
2023-05-12T12:47:53.776Z,48.32
2023-05-12T12:48:54.716Z,48.53
2023-05-12T12:49:54.727Z,48.31
2023-05-12T12:50:53.814Z,48.23
2023-05-12T12:51:53.819Z,48.22
2023-05-12T12:52:54.875Z,48.26
2023-05-12T12:53:53.896Z,48.02
2023-05-12T12:54:54.898Z,47.74